sensor_id;sensor_type;location;lat;lon;timestamp;temperature;humidity
59309;DHT22;48433;53.016;-2.260;2023-01-01T00:00:47;8.50;99.90
59309;DHT22;48433;53.016;-2.260;2023-01-01T00:03:15;8.60;99.90
59309;DHT22;48433;53.016;-2.260;2023-01-01T00:05:43;8.60;99.90
59309;DHT22;48433;53.016;-2.260;2023-01-01T00:08:11;8.60;99.90
59309;DHT22;48433;53.016;-2.260;2023-01-01T00:10:38;8.60;99.90
59309;DHT22;48433;53.016;-2.260;2023-01-01T00:13:06;8.60;99.90
59309;DHT22;48433;53.016;-2.260;2023-01-01T00:15:34;8.60;99.90
59309;DHT22;48433;53.016;-2.260;2023-01-01T00:18:01;8.50;99.90
59309;DHT22;48433;53.016;-2.260;2023-01-01T00:20:29;8.50;99.90
59309;DHT22;48433;53.016;-2.260;2023-01-01T00:23:02;8.50;99.90
59309;DHT22;48433;53.016;-2.260;2023-01-01T00:25:30;8.50;99.90
59309;DHT22;48433;53.016;-2.260;2023-01-01T00:27:58;8.40;99.90
59309;DHT22;48433;53.016;-2.260;2023-01-01T00:30:26;8.50;99.90
59309;DHT22;48433;53.016;-2.260;2023-01-01T00:32:54;8.50;99.90
59309;DHT22;48433;53.016;-2.260;2023-01-01T00:35:26;8.50;99.90
59309;DHT22;48433;53.016;-2.260;2023-01-01T00:37:54;8.60;99.90
59309;DHT22;48433;53.016;-2.260;2023-01-01T00:40:22;8.60;99.90
59309;DHT22;48433;53.016;-2.260;2023-01-01T00:42:50;8.60;99.90
59309;DHT22;48433;53.016;-2.260;2023-01-01T00:45:17;8.60;99.90
59309;DHT22;48433;53.016;-2.260;2023-01-01T00:47:50;8.70;99.90
59309;DHT22;48433;53.016;-2.260;2023-01-01T00:50:20;8.70;99.90
59309;DHT22;48433;53.016;-2.260;2023-01-01T00:52:48;8.70;99.90
59309;DHT22;48433;53.016;-2.260;2023-01-01T00:55:16;8.70;99.90
59309;DHT22;48433;53.016;-2.260;2023-01-01T00:57:43;8.60;99.90
59309;DHT22;48433;53.016;-2.260;2023-01-01T01:00:11;8.60;99.90
59309;DHT22;48433;53.016;-2.260;2023-01-01T01:02:39;8.60;99.90
59309;DHT22;48433;53.016;-2.260;2023-01-01T01:05:08;8.60;99.90
59309;DHT22;48433;53.016;-2.260;2023-01-01T01:07:36;8.60;99.90
59309;DHT22;48433;53.016;-2.260;2023-01-01T01:10:04;8.50;99.90
59309;DHT22;48433;53.016;-2.260;2023-01-01T01:12:33;8.50;99.90
59309;DHT22;48433;53.016;-2.260;2023-01-01T01:15:03;8.60;99.90
59309;DHT22;48433;53.016;-2.260;2023-01-01T01:17:31;8.50;99.90
59309;DHT22;48433;53.016;-2.260;2023-01-01T01:19:59;8.60;99.90
59309;DHT22;48433;53.016;-2.260;2023-01-01T01:22:27;8.50;99.90
59309;DHT22;48433;53.016;-2.260;2023-01-01T01:24:56;8.50;99.90
59309;DHT22;48433;53.016;-2.260;2023-01-01T01:27:24;8.60;99.90
59309;DHT22;48433;53.016;-2.260;2023-01-01T01:29:52;8.60;99.90
59309;DHT22;48433;53.016;-2.260;2023-01-01T01:32:20;8.60;99.90
59309;DHT22;48433;53.016;-2.260;2023-01-01T01:34:48;8.50;99.90
59309;DHT22;48433;53.016;-2.260;2023-01-01T01:37:15;8.50;99.90
59309;DHT22;48433;53.016;-2.260;2023-01-01T01:39:43;8.30;99.90
59309;DHT22;48433;53.016;-2.260;2023-01-01T01:42:18;8.30;99.90
59309;DHT22;48433;53.016;-2.260;2023-01-01T01:47:55;8.10;99.90
59309;DHT22;48433;53.016;-2.260;2023-01-01T01:50:36;8.00;99.90
59309;DHT22;48433;53.016;-2.260;2023-01-01T01:53:08;7.90;99.90
59309;DHT22;48433;53.016;-2.260;2023-01-01T01:55:40;7.90;99.90
59309;DHT22;48433;53.016;-2.260;2023-01-01T01:58:12;7.90;99.90
59309;DHT22;48433;53.016;-2.260;2023-01-01T02:00:41;7.80;99.90
59309;DHT22;48433;53.016;-2.260;2023-01-01T02:03:13;7.80;99.90
59309;DHT22;48433;53.016;-2.260;2023-01-01T02:05:43;7.80;99.90
59309;DHT22;48433;53.016;-2.260;2023-01-01T02:08:12;7.70;99.90
59309;DHT22;48433;53.016;-2.260;2023-01-01T02:10:42;7.70;99.90
59309;DHT22;48433;53.016;-2.260;2023-01-01T02:13:10;7.70;99.90
59309;DHT22;48433;53.016;-2.260;2023-01-01T02:15:53;7.60;99.90
59309;DHT22;48433;53.016;-2.260;2023-01-01T02:21:30;7.50;99.90
59309;DHT22;48433;53.016;-2.260;2023-01-01T02:24:24;7.50;99.90
59309;DHT22;48433;53.016;-2.260;2023-01-01T02:27:53;7.50;99.90
59309;DHT22;48433;53.016;-2.260;2023-01-01T02:30:04;7.50;99.90
59309;DHT22;48433;53.016;-2.260;2023-01-01T02:32:49;7.50;99.90
59309;DHT22;48433;53.016;-2.260;2023-01-01T02:38:29;7.40;99.90
59309;DHT22;48433;53.016;-2.260;2023-01-01T02:41:18;7.50;99.90
59309;DHT22;48433;53.016;-2.260;2023-01-01T02:43:48;7.50;99.90
59309;DHT22;48433;53.016;-2.260;2023-01-01T02:46:15;7.50;99.90
59309;DHT22;48433;53.016;-2.260;2023-01-01T02:48:44;7.50;99.90
59309;DHT22;48433;53.016;-2.260;2023-01-01T02:52:18;7.50;99.90
59309;DHT22;48433;53.016;-2.260;2023-01-01T02:54:36;7.50;99.90
59309;DHT22;48433;53.016;-2.260;2023-01-01T02:57:22;7.40;99.90
59309;DHT22;48433;53.016;-2.260;2023-01-01T03:00:13;7.40;99.90
59309;DHT22;48433;53.016;-2.260;2023-01-01T03:03:18;7.30;99.90
59309;DHT22;48433;53.016;-2.260;2023-01-01T03:12:28;7.20;99.90
59309;DHT22;48433;53.016;-2.260;2023-01-01T03:14:57;7.10;99.90
59309;DHT22;48433;53.016;-2.260;2023-01-01T03:17:34;7.10;99.90
59309;DHT22;48433;53.016;-2.260;2023-01-01T03:20:09;7.10;99.90
59309;DHT22;48433;53.016;-2.260;2023-01-01T03:22:40;7.10;99.90
59309;DHT22;48433;53.016;-2.260;2023-01-01T03:25:13;7.00;99.90
59309;DHT22;48433;53.016;-2.260;2023-01-01T03:27:51;7.00;99.90
59309;DHT22;48433;53.016;-2.260;2023-01-01T03:30:20;7.00;99.90
59309;DHT22;48433;53.016;-2.260;2023-01-01T03:32:55;7.00;99.90
59309;DHT22;48433;53.016;-2.260;2023-01-01T03:35:33;7.00;99.90
59309;DHT22;48433;53.016;-2.260;2023-01-01T03:38:07;7.00;99.90
59309;DHT22;48433;53.016;-2.260;2023-01-01T03:40:36;7.10;99.90
59309;DHT22;48433;53.016;-2.260;2023-01-01T03:43:13;7.10;99.90
59309;DHT22;48433;53.016;-2.260;2023-01-01T03:45:42;7.20;99.90
59309;DHT22;48433;53.016;-2.260;2023-01-01T03:48:11;7.30;99.90
59309;DHT22;48433;53.016;-2.260;2023-01-01T03:56:01;7.30;99.90
59309;DHT22;48433;53.016;-2.260;2023-01-01T03:58:40;7.30;99.90
59309;DHT22;48433;53.016;-2.260;2023-01-01T04:01:17;7.30;99.90
59309;DHT22;48433;53.016;-2.260;2023-01-01T04:03:46;7.40;99.90
59309;DHT22;48433;53.016;-2.260;2023-01-01T04:06:15;7.40;99.90
59309;DHT22;48433;53.016;-2.260;2023-01-01T04:08:42;7.30;99.90
59309;DHT22;48433;53.016;-2.260;2023-01-01T04:11:22;7.30;99.90
59309;DHT22;48433;53.016;-2.260;2023-01-01T04:14:09;7.30;99.90
59309;DHT22;48433;53.016;-2.260;2023-01-01T04:16:37;7.20;99.90
59309;DHT22;48433;53.016;-2.260;2023-01-01T04:19:04;7.20;99.90
59309;DHT22;48433;53.016;-2.260;2023-01-01T04:21:35;7.20;99.90
59309;DHT22;48433;53.016;-2.260;2023-01-01T04:24:03;7.30;99.90
59309;DHT22;48433;53.016;-2.260;2023-01-01T04:26:30;7.30;99.90
59309;DHT22;48433;53.016;-2.260;2023-01-01T04:28:58;7.40;99.90
59309;DHT22;48433;53.016;-2.260;2023-01-01T04:31:25;7.40;99.90
59309;DHT22;48433;53.016;-2.260;2023-01-01T04:33:53;7.50;99.90
59309;DHT22;48433;53.016;-2.260;2023-01-01T04:36:21;7.40;99.90
59309;DHT22;48433;53.016;-2.260;2023-01-01T04:38:48;7.40;99.90
59309;DHT22;48433;53.016;-2.260;2023-01-01T04:41:16;7.40;99.90
59309;DHT22;48433;53.016;-2.260;2023-01-01T04:43:47;9.00;99.90
59309;DHT22;48433;53.016;-2.260;2023-01-01T04:46:19;7.30;99.90
59309;DHT22;48433;53.016;-2.260;2023-01-01T04:48:47;7.20;99.90
59309;DHT22;48433;53.016;-2.260;2023-01-01T04:51:20;7.20;99.90
59309;DHT22;48433;53.016;-2.260;2023-01-01T04:53:48;7.10;99.90
59309;DHT22;48433;53.016;-2.260;2023-01-01T04:56:19;7.00;99.90
59309;DHT22;48433;53.016;-2.260;2023-01-01T04:58:47;6.90;99.90
59309;DHT22;48433;53.016;-2.260;2023-01-01T05:01:21;6.80;99.90
59309;DHT22;48433;53.016;-2.260;2023-01-01T05:03:49;6.80;99.90
59309;DHT22;48433;53.016;-2.260;2023-01-01T05:06:17;6.60;99.90
59309;DHT22;48433;53.016;-2.260;2023-01-01T05:08:47;6.60;99.90
59309;DHT22;48433;53.016;-2.260;2023-01-01T05:11:17;6.50;99.90
59309;DHT22;48433;53.016;-2.260;2023-01-01T05:13:47;6.50;99.90
59309;DHT22;48433;53.016;-2.260;2023-01-01T05:16:18;6.40;99.90
59309;DHT22;48433;53.016;-2.260;2023-01-01T05:18:46;6.40;99.90
59309;DHT22;48433;53.016;-2.260;2023-01-01T05:21:25;6.30;99.90
59309;DHT22;48433;53.016;-2.260;2023-01-01T05:23:55;6.30;99.90
59309;DHT22;48433;53.016;-2.260;2023-01-01T05:26:25;6.30;99.90
59309;DHT22;48433;53.016;-2.260;2023-01-01T05:28:54;6.30;99.90
59309;DHT22;48433;53.016;-2.260;2023-01-01T05:31:25;6.30;99.90
59309;DHT22;48433;53.016;-2.260;2023-01-01T05:33:53;6.30;99.90
59309;DHT22;48433;53.016;-2.260;2023-01-01T05:36:23;6.30;99.90
59309;DHT22;48433;53.016;-2.260;2023-01-01T05:38:51;6.40;99.90
59309;DHT22;48433;53.016;-2.260;2023-01-01T05:41:20;6.30;99.90
59309;DHT22;48433;53.016;-2.260;2023-01-01T05:43:49;6.40;99.90
59309;DHT22;48433;53.016;-2.260;2023-01-01T05:46:22;6.40;99.90
59309;DHT22;48433;53.016;-2.260;2023-01-01T05:48:52;6.50;99.90
59309;DHT22;48433;53.016;-2.260;2023-01-01T05:51:22;6.50;99.90
59309;DHT22;48433;53.016;-2.260;2023-01-01T05:53:52;6.50;99.90
59309;DHT22;48433;53.016;-2.260;2023-01-01T05:56:20;6.50;99.90
59309;DHT22;48433;53.016;-2.260;2023-01-01T06:01:24;6.50;99.90
59309;DHT22;48433;53.016;-2.260;2023-01-01T06:03:53;6.60;99.90
59309;DHT22;48433;53.016;-2.260;2023-01-01T06:06:27;6.60;99.90
59309;DHT22;48433;53.016;-2.260;2023-01-01T06:08:57;6.60;99.90
59309;DHT22;48433;53.016;-2.260;2023-01-01T06:11:25;6.60;99.90
59309;DHT22;48433;53.016;-2.260;2023-01-01T06:13:57;6.60;99.90
59309;DHT22;48433;53.016;-2.260;2023-01-01T06:16:26;6.60;99.90
59309;DHT22;48433;53.016;-2.260;2023-01-01T06:18:54;6.70;99.90
59309;DHT22;48433;53.016;-2.260;2023-01-01T06:21:23;6.80;99.90
59309;DHT22;48433;53.016;-2.260;2023-01-01T06:23:53;6.70;99.90
59309;DHT22;48433;53.016;-2.260;2023-01-01T06:26:23;6.80;99.90
59309;DHT22;48433;53.016;-2.260;2023-01-01T06:31:21;7.00;99.90
59309;DHT22;48433;53.016;-2.260;2023-01-01T06:33:49;7.10;99.90
59309;DHT22;48433;53.016;-2.260;2023-01-01T06:36:22;7.10;99.90
59309;DHT22;48433;53.016;-2.260;2023-01-01T06:41:22;7.20;99.90
59309;DHT22;48433;53.016;-2.260;2023-01-01T06:43:50;7.40;99.90
59309;DHT22;48433;53.016;-2.260;2023-01-01T06:46:31;7.30;99.90
59309;DHT22;48433;53.016;-2.260;2023-01-01T06:49:05;7.50;99.90
59309;DHT22;48433;53.016;-2.260;2023-01-01T06:51:37;7.50;99.90
59309;DHT22;48433;53.016;-2.260;2023-01-01T06:54:06;7.60;99.90
59309;DHT22;48433;53.016;-2.260;2023-01-01T06:56:33;7.60;99.90
59309;DHT22;48433;53.016;-2.260;2023-01-01T06:59:03;7.50;99.90
59309;DHT22;48433;53.016;-2.260;2023-01-01T07:01:33;7.50;99.90
59309;DHT22;48433;53.016;-2.260;2023-01-01T07:04:04;7.40;99.90
59309;DHT22;48433;53.016;-2.260;2023-01-01T07:06:34;7.30;99.90
59309;DHT22;48433;53.016;-2.260;2023-01-01T07:09:02;7.10;99.90
59309;DHT22;48433;53.016;-2.260;2023-01-01T07:11:30;7.10;99.90
59309;DHT22;48433;53.016;-2.260;2023-01-01T07:13:58;7.10;99.90
59309;DHT22;48433;53.016;-2.260;2023-01-01T07:16:26;7.20;99.90
59309;DHT22;48433;53.016;-2.260;2023-01-01T07:18:54;7.20;99.90
59309;DHT22;48433;53.016;-2.260;2023-01-01T07:21:26;7.20;99.90
59309;DHT22;48433;53.016;-2.260;2023-01-01T07:24:01;7.20;99.90
59309;DHT22;48433;53.016;-2.260;2023-01-01T07:26:30;7.30;99.90
59309;DHT22;48433;53.016;-2.260;2023-01-01T07:28:58;7.30;99.90
59309;DHT22;48433;53.016;-2.260;2023-01-01T07:31:39;7.30;99.90
59309;DHT22;48433;53.016;-2.260;2023-01-01T07:34:14;7.30;99.90
59309;DHT22;48433;53.016;-2.260;2023-01-01T07:36:42;7.40;99.90
59309;DHT22;48433;53.016;-2.260;2023-01-01T07:39:10;7.40;99.90
59309;DHT22;48433;53.016;-2.260;2023-01-01T07:41:38;7.40;99.90
59309;DHT22;48433;53.016;-2.260;2023-01-01T07:44:05;7.40;99.90
59309;DHT22;48433;53.016;-2.260;2023-01-01T07:46:34;7.40;99.90
59309;DHT22;48433;53.016;-2.260;2023-01-01T07:49:03;7.30;99.90
59309;DHT22;48433;53.016;-2.260;2023-01-01T07:51:31;7.30;99.90
59309;DHT22;48433;53.016;-2.260;2023-01-01T07:53:58;7.20;99.90
59309;DHT22;48433;53.016;-2.260;2023-01-01T07:56:33;7.20;99.90
59309;DHT22;48433;53.016;-2.260;2023-01-01T07:59:01;7.20;99.90
59309;DHT22;48433;53.016;-2.260;2023-01-01T08:01:29;7.20;99.90
59309;DHT22;48433;53.016;-2.260;2023-01-01T08:03:56;7.20;99.90
59309;DHT22;48433;53.016;-2.260;2023-01-01T08:06:24;7.20;99.90
59309;DHT22;48433;53.016;-2.260;2023-01-01T08:08:52;7.20;99.90
59309;DHT22;48433;53.016;-2.260;2023-01-01T08:11:20;7.10;99.90
59309;DHT22;48433;53.016;-2.260;2023-01-01T08:13:47;7.10;99.90
59309;DHT22;48433;53.016;-2.260;2023-01-01T08:16:15;7.10;99.90
59309;DHT22;48433;53.016;-2.260;2023-01-01T08:18:43;7.00;99.90
59309;DHT22;48433;53.016;-2.260;2023-01-01T08:21:10;7.00;99.90
59309;DHT22;48433;53.016;-2.260;2023-01-01T08:23:38;7.00;99.90
59309;DHT22;48433;53.016;-2.260;2023-01-01T08:26:05;7.00;99.90
59309;DHT22;48433;53.016;-2.260;2023-01-01T08:28:33;7.00;99.90
59309;DHT22;48433;53.016;-2.260;2023-01-01T08:31:02;6.90;99.90
59309;DHT22;48433;53.016;-2.260;2023-01-01T08:33:29;6.90;99.90
59309;DHT22;48433;53.016;-2.260;2023-01-01T08:35:57;6.90;99.90
59309;DHT22;48433;53.016;-2.260;2023-01-01T08:38:25;6.90;99.90
59309;DHT22;48433;53.016;-2.260;2023-01-01T08:40:53;6.90;99.90
59309;DHT22;48433;53.016;-2.260;2023-01-01T08:43:20;6.90;99.90
59309;DHT22;48433;53.016;-2.260;2023-01-01T08:45:49;6.90;99.90
59309;DHT22;48433;53.016;-2.260;2023-01-01T08:48:17;6.90;99.90
59309;DHT22;48433;53.016;-2.260;2023-01-01T08:50:51;7.00;99.90
59309;DHT22;48433;53.016;-2.260;2023-01-01T08:53:19;7.00;99.90
59309;DHT22;48433;53.016;-2.260;2023-01-01T08:56:01;7.10;99.90
59309;DHT22;48433;53.016;-2.260;2023-01-01T08:58:31;7.30;99.90
59309;DHT22;48433;53.016;-2.260;2023-01-01T09:00:58;7.40;99.90
59309;DHT22;48433;53.016;-2.260;2023-01-01T09:03:27;7.50;99.90
59309;DHT22;48433;53.016;-2.260;2023-01-01T09:05:55;7.70;99.90
59309;DHT22;48433;53.016;-2.260;2023-01-01T09:08:23;8.00;99.90
59309;DHT22;48433;53.016;-2.260;2023-01-01T09:10:51;8.00;99.90
59309;DHT22;48433;53.016;-2.260;2023-01-01T09:13:20;8.30;99.90
59309;DHT22;48433;53.016;-2.260;2023-01-01T09:15:48;8.30;99.90
59309;DHT22;48433;53.016;-2.260;2023-01-01T09:18:16;8.50;99.90
59309;DHT22;48433;53.016;-2.260;2023-01-01T09:20:44;8.80;99.90
59309;DHT22;48433;53.016;-2.260;2023-01-01T09:23:12;9.00;99.90
59309;DHT22;48433;53.016;-2.260;2023-01-01T09:25:39;9.20;99.90
59309;DHT22;48433;53.016;-2.260;2023-01-01T09:28:10;9.40;99.90
59309;DHT22;48433;53.016;-2.260;2023-01-01T09:30:39;9.60;99.90
59309;DHT22;48433;53.016;-2.260;2023-01-01T09:33:06;9.60;99.90
59309;DHT22;48433;53.016;-2.260;2023-01-01T09:35:34;9.60;99.90
59309;DHT22;48433;53.016;-2.260;2023-01-01T09:38:04;9.50;99.90
59309;DHT22;48433;53.016;-2.260;2023-01-01T09:43:25;9.10;99.90
59309;DHT22;48433;53.016;-2.260;2023-01-01T09:46:03;9.00;99.90
59309;DHT22;48433;53.016;-2.260;2023-01-01T09:48:35;8.90;99.90
59309;DHT22;48433;53.016;-2.260;2023-01-01T09:51:10;8.80;99.90
59309;DHT22;48433;53.016;-2.260;2023-01-01T09:53:52;8.80;99.90
59309;DHT22;48433;53.016;-2.260;2023-01-01T09:56:26;8.70;99.90
59309;DHT22;48433;53.016;-2.260;2023-01-01T09:58:57;8.70;99.90
59309;DHT22;48433;53.016;-2.260;2023-01-01T10:13:01;8.20;99.90
59309;DHT22;48433;53.016;-2.260;2023-01-01T10:15:39;8.10;99.90
59309;DHT22;48433;53.016;-2.260;2023-01-01T10:18:18;8.10;99.90
59309;DHT22;48433;53.016;-2.260;2023-01-01T10:20:57;8.10;99.90
59309;DHT22;48433;53.016;-2.260;2023-01-01T10:23:28;8.20;99.90
59309;DHT22;48433;53.016;-2.260;2023-01-01T10:26:03;8.10;99.90
59309;DHT22;48433;53.016;-2.260;2023-01-01T10:28:50;8.20;99.90
59309;DHT22;48433;53.016;-2.260;2023-01-01T10:31:33;8.20;99.90
59309;DHT22;48433;53.016;-2.260;2023-01-01T10:34:22;8.20;99.90
59309;DHT22;48433;53.016;-2.260;2023-01-01T10:36:53;8.20;99.90
59309;DHT22;48433;53.016;-2.260;2023-01-01T10:39:22;8.30;99.90
59309;DHT22;48433;53.016;-2.260;2023-01-01T10:41:50;8.30;99.90
59309;DHT22;48433;53.016;-2.260;2023-01-01T10:44:37;8.30;99.90
59309;DHT22;48433;53.016;-2.260;2023-01-01T10:47:26;8.30;99.90
59309;DHT22;48433;53.016;-2.260;2023-01-01T10:50:03;8.30;99.90
59309;DHT22;48433;53.016;-2.260;2023-01-01T10:52:36;8.30;99.90
59309;DHT22;48433;53.016;-2.260;2023-01-01T10:55:05;8.30;99.90
59309;DHT22;48433;53.016;-2.260;2023-01-01T10:57:35;8.30;99.90
59309;DHT22;48433;53.016;-2.260;2023-01-01T11:00:27;8.20;99.90
59309;DHT22;48433;53.016;-2.260;2023-01-01T11:03:20;8.20;99.90
59309;DHT22;48433;53.016;-2.260;2023-01-01T11:06:03;8.20;99.90
59309;DHT22;48433;53.016;-2.260;2023-01-01T11:08:33;8.00;99.90
59309;DHT22;48433;53.016;-2.260;2023-01-01T11:11:02;8.00;99.90
59309;DHT22;48433;53.016;-2.260;2023-01-01T11:13:30;8.10;99.90
59309;DHT22;48433;53.016;-2.260;2023-01-01T11:15:59;8.20;99.90
59309;DHT22;48433;53.016;-2.260;2023-01-01T11:18:29;8.40;99.90
59309;DHT22;48433;53.016;-2.260;2023-01-01T11:21:04;8.50;99.90
59309;DHT22;48433;53.016;-2.260;2023-01-01T11:23:37;8.90;99.90
59309;DHT22;48433;53.016;-2.260;2023-01-01T11:28:39;9.10;99.90
59309;DHT22;48433;53.016;-2.260;2023-01-01T11:31:17;9.20;99.90
59309;DHT22;48433;53.016;-2.260;2023-01-01T11:33:54;9.10;99.90
59309;DHT22;48433;53.016;-2.260;2023-01-01T11:36:32;9.10;99.90
59309;DHT22;48433;53.016;-2.260;2023-01-01T11:41:47;9.00;99.90
59309;DHT22;48433;53.016;-2.260;2023-01-01T11:47:06;8.90;99.90
59309;DHT22;48433;53.016;-2.260;2023-01-01T11:49:43;8.80;99.90
59309;DHT22;48433;53.016;-2.260;2023-01-01T11:52:27;8.80;99.90
59309;DHT22;48433;53.016;-2.260;2023-01-01T11:55:11;8.80;99.90
59309;DHT22;48433;53.016;-2.260;2023-01-01T11:57:44;8.90;99.90
59309;DHT22;48433;53.016;-2.260;2023-01-01T12:00:14;8.90;99.90
59309;DHT22;48433;53.016;-2.260;2023-01-01T12:02:49;8.90;99.90
59309;DHT22;48433;53.016;-2.260;2023-01-01T12:08:09;9.00;99.90
59309;DHT22;48433;53.016;-2.260;2023-01-01T12:10:50;9.00;99.90
59309;DHT22;48433;53.016;-2.260;2023-01-01T12:13:26;9.00;99.90
59309;DHT22;48433;53.016;-2.260;2023-01-01T12:16:08;9.10;99.90
59309;DHT22;48433;53.016;-2.260;2023-01-01T12:21:25;9.20;99.90
59309;DHT22;48433;53.016;-2.260;2023-01-01T12:23:54;9.30;99.90
59309;DHT22;48433;53.016;-2.260;2023-01-01T12:29:18;9.30;99.90
59309;DHT22;48433;53.016;-2.260;2023-01-01T12:40:11;9.40;99.90
59309;DHT22;48433;53.016;-2.260;2023-01-01T12:43:01;9.50;99.90
59309;DHT22;48433;53.016;-2.260;2023-01-01T12:56:38;9.90;99.90
59309;DHT22;48433;53.016;-2.260;2023-01-01T12:59:14;9.80;99.90
59309;DHT22;48433;53.016;-2.260;2023-01-01T13:01:45;9.80;99.90
59309;DHT22;48433;53.016;-2.260;2023-01-01T13:04:19;9.80;99.90
59309;DHT22;48433;53.016;-2.260;2023-01-01T13:06:59;9.70;99.90
59309;DHT22;48433;53.016;-2.260;2023-01-01T13:09:34;9.60;99.90
59309;DHT22;48433;53.016;-2.260;2023-01-01T13:12:10;9.60;99.90
59309;DHT22;48433;53.016;-2.260;2023-01-01T13:14:43;9.50;99.90
59309;DHT22;48433;53.016;-2.260;2023-01-01T13:33:28;9.70;99.90
59309;DHT22;48433;53.016;-2.260;2023-01-01T13:38:53;9.80;99.90
59309;DHT22;48433;53.016;-2.260;2023-01-01T13:51:51;9.70;99.90
59309;DHT22;48433;53.016;-2.260;2023-01-01T14:00:28;9.80;99.90
59309;DHT22;48433;53.016;-2.260;2023-01-01T14:03:00;9.80;99.90
59309;DHT22;48433;53.016;-2.260;2023-01-01T14:08:03;9.80;99.90
59309;DHT22;48433;53.016;-2.260;2023-01-01T14:10:39;9.80;99.90
59309;DHT22;48433;53.016;-2.260;2023-01-01T14:15:39;10.10;99.90
59309;DHT22;48433;53.016;-2.260;2023-01-01T14:18:14;10.20;99.90
59309;DHT22;48433;53.016;-2.260;2023-01-01T14:20:50;10.10;99.90
59309;DHT22;48433;53.016;-2.260;2023-01-01T14:23:57;10.10;99.90
59309;DHT22;48433;53.016;-2.260;2023-01-01T14:26:18;10.10;99.90
59309;DHT22;48433;53.016;-2.260;2023-01-01T14:28:46;9.90;99.90
59309;DHT22;48433;53.016;-2.260;2023-01-01T14:31:18;9.90;99.90
59309;DHT22;48433;53.016;-2.260;2023-01-01T14:33:46;9.80;99.90
59309;DHT22;48433;53.016;-2.260;2023-01-01T14:36:22;9.80;99.90
59309;DHT22;48433;53.016;-2.260;2023-01-01T14:38:53;9.70;99.90
59309;DHT22;48433;53.016;-2.260;2023-01-01T14:41:33;9.70;99.90
59309;DHT22;48433;53.016;-2.260;2023-01-01T14:46:31;9.60;99.90
59309;DHT22;48433;53.016;-2.260;2023-01-01T14:49:02;9.60;99.90
59309;DHT22;48433;53.016;-2.260;2023-01-01T14:51:34;9.60;99.90
59309;DHT22;48433;53.016;-2.260;2023-01-01T14:54:20;9.60;99.90
59309;DHT22;48433;53.016;-2.260;2023-01-01T14:56:49;9.60;99.90
59309;DHT22;48433;53.016;-2.260;2023-01-01T15:02:16;9.50;99.90
59309;DHT22;48433;53.016;-2.260;2023-01-01T15:04:44;9.50;99.90
59309;DHT22;48433;53.016;-2.260;2023-01-01T15:07:20;9.50;99.90
59309;DHT22;48433;53.016;-2.260;2023-01-01T15:09:49;9.50;99.90
59309;DHT22;48433;53.016;-2.260;2023-01-01T15:12:16;9.40;99.90
59309;DHT22;48433;53.016;-2.260;2023-01-01T15:14:44;9.40;99.90
59309;DHT22;48433;53.016;-2.260;2023-01-01T15:17:14;9.40;99.90
59309;DHT22;48433;53.016;-2.260;2023-01-01T15:19:45;9.30;99.90
59309;DHT22;48433;53.016;-2.260;2023-01-01T15:24:50;9.30;99.90
59309;DHT22;48433;53.016;-2.260;2023-01-01T15:27:31;9.30;99.90
59309;DHT22;48433;53.016;-2.260;2023-01-01T15:30:00;9.20;99.90
59309;DHT22;48433;53.016;-2.260;2023-01-01T15:35:18;9.10;99.90
59309;DHT22;48433;53.016;-2.260;2023-01-01T15:40:36;9.00;99.90
59309;DHT22;48433;53.016;-2.260;2023-01-01T15:43:18;9.00;99.90
59309;DHT22;48433;53.016;-2.260;2023-01-01T15:46:09;9.00;99.90
59309;DHT22;48433;53.016;-2.260;2023-01-01T15:48:49;8.90;99.90
59309;DHT22;48433;53.016;-2.260;2023-01-01T15:51:21;8.80;99.90
59309;DHT22;48433;53.016;-2.260;2023-01-01T15:56:16;8.70;99.90
59309;DHT22;48433;53.016;-2.260;2023-01-01T16:01:47;8.60;99.90
59309;DHT22;48433;53.016;-2.260;2023-01-01T16:04:24;8.50;99.90
59309;DHT22;48433;53.016;-2.260;2023-01-01T16:06:57;8.50;99.90
59309;DHT22;48433;53.016;-2.260;2023-01-01T16:09:25;8.40;99.90
59309;DHT22;48433;53.016;-2.260;2023-01-01T16:11:54;8.40;99.90
59309;DHT22;48433;53.016;-2.260;2023-01-01T16:14:23;8.30;99.90
59309;DHT22;48433;53.016;-2.260;2023-01-01T16:16:53;8.30;99.90
59309;DHT22;48433;53.016;-2.260;2023-01-01T16:19:24;8.20;99.90
59309;DHT22;48433;53.016;-2.260;2023-01-01T16:21:52;8.20;99.90
59309;DHT22;48433;53.016;-2.260;2023-01-01T16:24:19;8.20;99.90
59309;DHT22;48433;53.016;-2.260;2023-01-01T16:26:47;8.10;99.90
59309;DHT22;48433;53.016;-2.260;2023-01-01T16:29:15;8.10;99.90
59309;DHT22;48433;53.016;-2.260;2023-01-01T16:31:42;8.00;99.90
59309;DHT22;48433;53.016;-2.260;2023-01-01T16:34:12;8.00;99.90
59309;DHT22;48433;53.016;-2.260;2023-01-01T16:36:42;8.00;99.90
59309;DHT22;48433;53.016;-2.260;2023-01-01T16:39:10;8.00;99.90
59309;DHT22;48433;53.016;-2.260;2023-01-01T16:41:42;7.90;99.90
59309;DHT22;48433;53.016;-2.260;2023-01-01T16:44:13;7.90;99.90
59309;DHT22;48433;53.016;-2.260;2023-01-01T16:46:41;7.80;99.90
59309;DHT22;48433;53.016;-2.260;2023-01-01T16:49:09;7.70;99.90
59309;DHT22;48433;53.016;-2.260;2023-01-01T16:51:36;7.80;99.90
59309;DHT22;48433;53.016;-2.260;2023-01-01T16:54:10;7.70;99.90
59309;DHT22;48433;53.016;-2.260;2023-01-01T16:56:37;7.70;99.90
59309;DHT22;48433;53.016;-2.260;2023-01-01T16:59:05;7.70;99.90
59309;DHT22;48433;53.016;-2.260;2023-01-01T17:01:33;7.60;99.90
59309;DHT22;48433;53.016;-2.260;2023-01-01T17:04:00;7.60;99.90
59309;DHT22;48433;53.016;-2.260;2023-01-01T17:06:28;7.70;99.90
59309;DHT22;48433;53.016;-2.260;2023-01-01T17:08:58;7.60;99.90
59309;DHT22;48433;53.016;-2.260;2023-01-01T17:11:25;7.70;99.90
59309;DHT22;48433;53.016;-2.260;2023-01-01T17:13:53;7.70;99.90
59309;DHT22;48433;53.016;-2.260;2023-01-01T17:16:21;7.70;99.90
59309;DHT22;48433;53.016;-2.260;2023-01-01T17:18:55;7.80;99.90
59309;DHT22;48433;53.016;-2.260;2023-01-01T17:21:43;7.90;99.90
59309;DHT22;48433;53.016;-2.260;2023-01-01T17:24:11;7.80;99.90
59309;DHT22;48433;53.016;-2.260;2023-01-01T17:26:39;7.90;99.90
59309;DHT22;48433;53.016;-2.260;2023-01-01T17:29:07;7.90;99.90
59309;DHT22;48433;53.016;-2.260;2023-01-01T17:31:34;7.90;99.90
59309;DHT22;48433;53.016;-2.260;2023-01-01T17:34:03;7.90;99.90
59309;DHT22;48433;53.016;-2.260;2023-01-01T17:36:31;7.90;99.90
59309;DHT22;48433;53.016;-2.260;2023-01-01T17:38:58;8.00;99.90
59309;DHT22;48433;53.016;-2.260;2023-01-01T17:41:26;8.00;99.90
59309;DHT22;48433;53.016;-2.260;2023-01-01T17:43:54;8.00;99.90
59309;DHT22;48433;53.016;-2.260;2023-01-01T17:46:24;8.00;99.90
59309;DHT22;48433;53.016;-2.260;2023-01-01T17:48:53;8.00;99.90
59309;DHT22;48433;53.016;-2.260;2023-01-01T17:51:20;8.10;99.90
59309;DHT22;48433;53.016;-2.260;2023-01-01T17:53:48;8.10;99.90
59309;DHT22;48433;53.016;-2.260;2023-01-01T17:56:17;8.00;99.90
59309;DHT22;48433;53.016;-2.260;2023-01-01T17:58:46;8.00;99.90
59309;DHT22;48433;53.016;-2.260;2023-01-01T18:03:56;8.00;99.90
59309;DHT22;48433;53.016;-2.260;2023-01-01T18:06:24;8.00;99.90
59309;DHT22;48433;53.016;-2.260;2023-01-01T18:08:56;7.90;99.90
59309;DHT22;48433;53.016;-2.260;2023-01-01T18:11:26;7.90;99.90
59309;DHT22;48433;53.016;-2.260;2023-01-01T18:13:58;7.90;99.90
59309;DHT22;48433;53.016;-2.260;2023-01-01T18:16:27;7.80;99.90
59309;DHT22;48433;53.016;-2.260;2023-01-01T18:18:55;7.80;99.90